• Join FlightAware (Why Join?)
  • Login
  • US Flag 
11:04PM EDT


 

Airport Tracker/Info


-or-


 

Live Flight TrackerFlight Track Log ✈ N414MF ✈ 01-May-2012 ✈ KFCI - KHDI

Flight Track Log - Related Links

Times and Time Zones

All times are in EDT time to prevent confusion due to time zone crossing. See the N414MF flight status page for this flight to view local times or setup timezone preferences in your user account.

Time Position Orientation Groundspeed Altitude Reporting Facility
EDT Latitude Longitude Course Direction KTS MPH feet Rate Location/Type
05:11PM 37.4000 -77.8500 275° West 140 161 5,900  Level Potomac TRACON
05:12PM 37.4025 -77.8897 258° West 137 158 6,600 600 Climbing Washington Center
05:13PM 37.3956 -77.9314 258° West 132 152 7,200 600 Climbing Washington Center
05:14PM 37.3883 -77.9731 250° West 127 146 7,900 660 Climbing Washington Center
05:15PM 37.3772 -78.0119 248° West 127 146 8,600 600 Climbing Washington Center
05:17PM 37.3503 -78.0947 246° West 127 146 9,800 420 Climbing Washington Center
05:18PM 37.3328 -78.1439 258° West 137 158 10,000  Climbing Washington Center
05:19PM 37.3231 -78.2036 250° West 152 175 9,900 -60 Descending Washington Center
05:20PM 37.3072 -78.2578 253° West 160 184 9,900  Level Washington Center
05:21PM 37.2936 -78.3122 251° West 165 190 9,900  Level Washington Center
05:22PM 37.2800 -78.3611 251° West 165 190 9,900  Level Washington Center
05:23PM 37.2661 -78.4131 250° West 165 190 9,900  Level Washington Center
05:24PM 37.2503 -78.4672 251° West 165 190 9,900  Level Washington Center
05:25PM 37.2367 -78.5161 250° West 165 190 9,900  Level Washington Center
05:26PM 37.2206 -78.5731 249° West 165 190 9,900 300 Level Washington Center
05:27PM 37.2069 -78.6167 249° West 154 177 10,500 480 Climbing Washington Center
05:28PM 37.1933 -78.6606 249° West 147 169 10,900 300 Climbing Washington Center
05:29PM 37.1797 -78.7044 250° West 147 169 11,200 300 Climbing Washington Center
05:30PM 37.1681 -78.7456 252° West 147 169 11,600 420 Climbing Washington Center
05:31PM 37.1567 -78.7894 248° West 147 169 12,100 360 Climbing Washington Center
05:32PM 37.1428 -78.8331 249° West 147 169 12,400 300 Climbing Washington Center
05:33PM 37.1292 -78.8769 252° West 147 169 12,700 300 Climbing Washington Center
05:34PM 37.1153 -78.9308 248° West 147 169 13,100 420 Climbing Washington Center
05:35PM 37.1014 -78.9747 253° West 147 169 13,600 360 Climbing Washington Center
05:36PM 37.0897 -79.0211 248° West 147 169 13,900 120 Climbing Washington Center
05:37PM 37.0736 -79.0722 252° West 147 169 13,900  Level Washington Center
05:38PM 37.0594 -79.1264 247° West 153 176 13,900  Level Washington Center
05:39PM 37.0436 -79.1725 252° West 158 182 13,900  Level Washington Center
05:40PM 37.0294 -79.2264 249° West 164 189 13,900  Level Washington Center
05:41PM 37.0131 -79.2803 248° West 164 189 13,900  Level Washington Center
05:42PM 36.9969 -79.3314 250° West 164 189 13,900  Level Washington Center
05:43PM 36.9806 -79.3878 249° West 164 189 13,900  Level Washington Center
05:44PM 36.9642 -79.4417 251° West 164 189 13,900  Level Washington Center
05:45PM 36.9500 -79.4931 252° West 164 189 14,000  Climbing Washington Center
05:46PM 36.9358 -79.5469 249° West 164 189 14,000  Level Washington Center
05:47PM 36.9217 -79.5928 249° West 164 189 14,000 -60 Level Washington Center
05:48PM 36.9053 -79.6467 249° West 164 189 13,900 -60 Descending Washington Center
05:49PM 36.8889 -79.7003 248° West 164 189 13,900  Level Washington Center
05:50PM 36.8725 -79.7514 250° West 164 189 13,900  Level Washington Center
05:51PM 36.8536 -79.8153 251° West 164 189 14,000  Climbing Washington Center
05:52PM 36.8392 -79.8689 250° West 164 189 14,000 -60 Level Washington Center
05:53PM 36.8225 -79.9250 248° West 164 189 13,900  Descending Washington Center
05:55PM 36.7894 -80.0289 248° West 172 198 14,000 60 Climbing Atlanta Center
05:56PM 36.7722 -80.0817 250° West 172 198 14,100  Climbing Atlanta Center
05:57PM 36.7572 -80.1342 258° West 172 198 14,100  Level Atlanta Center
05:58PM 36.7486 -80.1839 251° West 172 198 14,100 -60 Level Atlanta Center
05:59PM 36.7336 -80.2389 249° West 167 192 14,000 -60 Descending Atlanta Center
06:00PM 36.7183 -80.2889 252° West 167 192 14,000  Level Atlanta Center
06:01PM 36.7033 -80.3464 253° West 167 192 14,000 -60 Level Atlanta Center
06:02PM 36.6906 -80.3989 258° West 167 192 13,900  Descending Atlanta Center
06:03PM 36.6817 -80.4511 256° West 167 192 14,000  Climbing Atlanta Center
06:04PM 36.6706 -80.5058 254° West 167 192 14,000  Level Atlanta Center
06:05PM 36.6594 -80.5531 248° West 167 192 14,000 -60 Level Atlanta Center
06:06PM 36.6403 -80.6133 244° Southwest 167 192 13,900 -60 Descending Atlanta Center
06:07PM 36.6208 -80.6633 245° Southwest 167 192 13,900  Level Atlanta Center
06:08PM 36.6033 -80.7106 248° West 162 186 14,000  Climbing Atlanta Center
06:09PM 36.5861 -80.7631 252° West 157 181 13,900 -60 Descending Atlanta Center
06:10PM 36.5728 -80.8128 252° West 152 175 13,900  Level Atlanta Center
06:11PM 36.5594 -80.8650 250° West 159 183 13,900  Level Atlanta Center
06:12PM 36.5461 -80.9094 260° West 159 183 13,900  Level Atlanta Center
06:13PM 36.5389 -80.9614 248° West 153 176 13,900  Level Atlanta Center
06:14PM 36.5217 -81.0136 249° West 159 183 13,900  Level Atlanta Center
06:15PM 36.5061 -81.0633 251° West 164 189 13,900  Level Atlanta Center
06:16PM 36.4908 -81.1181 249° West 164 189 13,900  Level Atlanta Center
06:17PM 36.4753 -81.1678 247° West 169 194 13,900  Level Atlanta Center
06:18PM 36.4575 -81.2200 251° West 169 194 13,900  Level Atlanta Center
06:19PM 36.4422 -81.2747 247° West 169 194 13,900  Level Atlanta Center
06:20PM 36.4244 -81.3269 251° West 169 194 13,900  Level Atlanta Center
06:21PM 36.4111 -81.3764 247° West 164 189 13,900  Level Atlanta Center
06:22PM 36.3933 -81.4286 246° West 164 189 13,900  Level Atlanta Center
06:23PM 36.3758 -81.4781 249° West 164 189 13,900  Level Atlanta Center
06:24PM 36.3600 -81.5303 249° West 164 189 13,900  Level Atlanta Center
06:25PM 36.3444 -81.5797 246° West 164 189 13,900  Level Atlanta Center
06:26PM 36.3267 -81.6292 251° West 157 181 13,900  Level Atlanta Center
06:27PM 36.3131 -81.6786 246° West 157 181 13,900  Level Atlanta Center
06:28PM 36.2950 -81.7281 248° West 157 181 13,900  Level Atlanta Center
06:29PM 36.2794 -81.7747 248° West 157 181 13,900  Level Atlanta Center
06:30PM 36.2636 -81.8242 250° West 157 181 13,900  Level Atlanta Center
06:31PM 36.2478 -81.8786 247° West 157 181 13,900  Level Atlanta Center
06:32PM 36.2319 -81.9256 248° West 157 181 14,000  Climbing Atlanta Center
06:33PM 36.2161 -81.9747 246° West 151 174 13,900 -60 Descending Atlanta Center
06:34PM 36.1961 -82.0294 247° West 156 180 13,900  Level Atlanta Center
06:35PM 36.1783 -82.0811 250° West 156 180 13,900  Level Atlanta Center
06:36PM 36.1625 -82.1356 246° West 157 181 13,900  Level Atlanta Center
06:37PM 36.1425 -82.1900 246° West 162 186 13,900  Level Atlanta Center
06:38PM 36.1244 -82.2392 249° West 162 186 13,900  Level Atlanta Center
06:39PM 36.1083 -82.2911 247° West 162 186 13,900  Level Atlanta Center
06:40PM 36.0903 -82.3428 247° West 162 186 13,900  Level Atlanta Center
06:41PM 36.0722 -82.3947 248° West 162 186 13,900  Level Atlanta Center
06:42PM 36.0561 -82.4436 247° West 162 186 13,900  Level Atlanta Center
06:43PM 36.0381 -82.4956 249° West 162 186 13,900  Level Atlanta Center
06:44PM 36.0222 -82.5472 246° West 167 192 13,900  Level Atlanta Center
06:45PM 36.0039 -82.5989 249° West 167 192 13,900  Level Atlanta Center
06:46PM 35.9878 -82.6503 247° West 172 198 13,900  Level Atlanta Center
06:47PM 35.9697 -82.7019 246° West 172 198 13,900  Level Atlanta Center
06:48PM 35.9514 -82.7536 248° West 172 198 13,900  Level Atlanta Center
06:49PM 35.9353 -82.8025 244° Southwest 167 192 13,900  Level Atlanta Center
06:50PM 35.9150 -82.8542 249° West 167 192 13,900  Level Atlanta Center
06:51PM 35.8986 -82.9058 246° West 167 192 13,900  Level Atlanta Center
06:52PM 35.8803 -82.9572 249° West 172 198 13,900  Level Atlanta Center
06:53PM 35.8661 -83.0036 248° West 167 192 13,900  Level Atlanta Center
06:54PM 35.8500 -83.0525 246° West 167 192 13,900  Level Atlanta Center
06:55PM 35.8314 -83.1039 246° West 162 186 13,900  Level Atlanta Center
06:56PM 35.8131 -83.1553 248° West 162 186 13,900  Level Atlanta Center
06:57PM 35.7967 -83.2042 250° West 167 192 13,900  Level Atlanta Center
06:58PM 35.7783 -83.2658 248° West 173 199 13,900  Level Atlanta Center
06:59PM 35.7619 -83.3169 244° Southwest 173 199 13,900  Level Atlanta Center
07:00PM 35.7414 -83.3683 246° West 173 199 13,900  Level Atlanta Center
07:01PM 35.7231 -83.4197 248° West 168 193 13,900  Level Atlanta Center
07:02PM 35.7064 -83.4711 246° West 168 193 13,900  Level Atlanta Center
07:03PM 35.6881 -83.5222 249° West 168 193 13,900  Level Atlanta Center
07:04PM 35.6714 -83.5761 247° West 168 193 13,900 -300 Level Atlanta Center
07:05PM 35.6528 -83.6297 245° Southwest 168 193 13,400 -420 Descending Atlanta Center
07:06PM 35.6322 -83.6836 248° West 173 199 13,100 -360 Descending Atlanta Center
07:07PM 35.6136 -83.7400 247° West 173 199 12,700 -360 Descending Atlanta Center
07:08PM 35.5950 -83.7936 244° Southwest 173 199 12,400 -420 Descending Atlanta Center
07:09PM 35.5742 -83.8472 248° West 173 199 11,900 -480 Descending Atlanta Center
07:10PM 35.5556 -83.9033 247° West 173 199 11,500 -420 Descending Atlanta Center
07:11PM 35.5367 -83.9569 246° West 173 199 11,100 -480 Descending Atlanta Center
07:12PM 35.5158 -84.0133 248° West 173 199 10,600 -480 Descending Atlanta Center
07:13PM 35.4972 -84.0694 245° Southwest 173 199 10,200 -540 Descending Atlanta Center
07:14PM 35.4761 -84.1256 246° West 173 199 9,600 -840 Descending Atlanta Center
07:15PM 35.4553 -84.1817 245° Southwest 173 199 8,600 -1,020 Descending Atlanta Center
07:22PM 35.3167 -84.5409 247° West  Level FlightAware Approximate
07:23PM 35.2989 -84.5915 242° Southwest  Level FlightAware Approximate
07:24PM 35.2778 -84.6409 242° Southwest  Level FlightAware Approximate